sensor_id;sensor_type;location;lat;lon;timestamp;P1;durP1;ratioP1;P2;durP2;ratioP2
7647;SDS011;3866;48.020;11.720;2023-02-15T00:01:29;47.77;;;15.33;;
7647;SDS011;3866;48.020;11.720;2023-02-15T00:03:57;63.90;;;16.43;;
7647;SDS011;3866;48.020;11.720;2023-02-15T00:06:27;19.70;;;13.97;;
7647;SDS011;3866;48.020;11.720;2023-02-15T00:08:54;33.73;;;14.40;;
7647;SDS011;3866;48.020;11.720;2023-02-15T00:11:22;55.20;;;17.00;;
7647;SDS011;3866;48.020;11.720;2023-02-15T00:14:03;110.60;;;17.67;;
7647;SDS011;3866;48.020;11.720;2023-02-15T00:16:30;86.97;;;18.30;;
7647;SDS011;3866;48.020;11.720;2023-02-15T00:18:58;22.90;;;15.00;;
7647;SDS011;3866;48.020;11.720;2023-02-15T00:21:27;33.67;;;14.97;;
7647;SDS011;3866;48.020;11.720;2023-02-15T00:23:55;29.00;;;14.43;;
7647;SDS011;3866;48.020;11.720;2023-02-15T00:26:22;34.40;;;15.00;;
7647;SDS011;3866;48.020;11.720;2023-02-15T00:28:49;40.00;;;15.70;;
7647;SDS011;3866;48.020;11.720;2023-02-15T00:31:16;22.70;;;13.93;;
7647;SDS011;3866;48.020;11.720;2023-02-15T00:33:43;53.23;;;15.20;;
7647;SDS011;3866;48.020;11.720;2023-02-15T00:36:12;22.30;;;13.03;;
7647;SDS011;3866;48.020;11.720;2023-02-15T00:38:39;37.10;;;14.63;;
7647;SDS011;3866;48.020;11.720;2023-02-15T00:41:06;47.07;;;14.87;;
7647;SDS011;3866;48.020;11.720;2023-02-15T00:43:35;17.00;;;13.23;;
7647;SDS011;3866;48.020;11.720;2023-02-15T00:46:03;31.27;;;14.47;;
7647;SDS011;3866;48.020;11.720;2023-02-15T00:48:31;34.73;;;14.67;;
7647;SDS011;3866;48.020;11.720;2023-02-15T00:50:58;39.10;;;13.77;;
7647;SDS011;3866;48.020;11.720;2023-02-15T00:53:28;29.93;;;13.67;;
7647;SDS011;3866;48.020;11.720;2023-02-15T00:55:57;59.20;;;15.33;;
7647;SDS011;3866;48.020;11.720;2023-02-15T00:58:24;21.10;;;12.80;;
7647;SDS011;3866;48.020;11.720;2023-02-15T01:00:51;39.13;;;13.70;;
7647;SDS011;3866;48.020;11.720;2023-02-15T01:03:19;29.70;;;13.43;;
7647;SDS011;3866;48.020;11.720;2023-02-15T01:05:47;52.40;;;14.63;;
7647;SDS011;3866;48.020;11.720;2023-02-15T01:08:15;60.23;;;14.57;;
7647;SDS011;3866;48.020;11.720;2023-02-15T01:10:43;37.53;;;13.50;;
7647;SDS011;3866;48.020;11.720;2023-02-15T01:13:12;22.03;;;12.50;;
7647;SDS011;3866;48.020;11.720;2023-02-15T01:15:40;23.37;;;11.97;;
7647;SDS011;3866;48.020;11.720;2023-02-15T01:18:07;36.53;;;12.33;;
7647;SDS011;3866;48.020;11.720;2023-02-15T01:20:34;46.60;;;13.87;;
7647;SDS011;3866;48.020;11.720;2023-02-15T01:23:04;21.43;;;12.33;;
7647;SDS011;3866;48.020;11.720;2023-02-15T01:25:32;67.83;;;14.80;;
7647;SDS011;3866;48.020;11.720;2023-02-15T01:28:01;40.23;;;12.70;;
7647;SDS011;3866;48.020;11.720;2023-02-15T01:30:28;17.57;;;11.33;;
7647;SDS011;3866;48.020;11.720;2023-02-15T01:32:55;33.00;;;13.97;;
7647;SDS011;3866;48.020;11.720;2023-02-15T01:35:22;19.10;;;11.17;;
7647;SDS011;3866;48.020;11.720;2023-02-15T01:37:49;53.67;;;15.20;;
7647;SDS011;3866;48.020;11.720;2023-02-15T01:40:16;16.90;;;11.77;;
7647;SDS011;3866;48.020;11.720;2023-02-15T01:42:45;16.87;;;11.47;;
7647;SDS011;3866;48.020;11.720;2023-02-15T01:45:19;18.40;;;11.60;;
7647;SDS011;3866;48.020;11.720;2023-02-15T01:47:50;21.43;;;12.13;;
7647;SDS011;3866;48.020;11.720;2023-02-15T01:50:23;15.53;;;11.97;;
7647;SDS011;3866;48.020;11.720;2023-02-15T01:52:55;16.23;;;11.53;;
7647;SDS011;3866;48.020;11.720;2023-02-15T01:55:25;29.80;;;13.07;;
7647;SDS011;3866;48.020;11.720;2023-02-15T01:57:56;19.53;;;11.47;;
7647;SDS011;3866;48.020;11.720;2023-02-15T02:00:24;26.43;;;11.33;;
7647;SDS011;3866;48.020;11.720;2023-02-15T02:02:53;15.30;;;11.27;;
7647;SDS011;3866;48.020;11.720;2023-02-15T02:05:22;16.60;;;12.03;;
7647;SDS011;3866;48.020;11.720;2023-02-15T02:07:50;16.90;;;12.63;;
7647;SDS011;3866;48.020;11.720;2023-02-15T02:10:20;17.73;;;13.27;;
7647;SDS011;3866;48.020;11.720;2023-02-15T02:12:49;16.63;;;12.30;;
7647;SDS011;3866;48.020;11.720;2023-02-15T02:15:18;16.03;;;12.30;;
7647;SDS011;3866;48.020;11.720;2023-02-15T02:17:54;14.63;;;11.00;;
7647;SDS011;3866;48.020;11.720;2023-02-15T02:20:38;23.83;;;10.93;;
7647;SDS011;3866;48.020;11.720;2023-02-15T02:23:30;19.97;;;11.73;;
7647;SDS011;3866;48.020;11.720;2023-02-15T02:26:25;15.30;;;10.70;;
7647;SDS011;3866;48.020;11.720;2023-02-15T02:32:18;19.77;;;11.00;;
7647;SDS011;3866;48.020;11.720;2023-02-15T02:35:04;18.67;;;11.53;;
7647;SDS011;3866;48.020;11.720;2023-02-15T02:37:37;14.70;;;11.50;;
7647;SDS011;3866;48.020;11.720;2023-02-15T02:40:13;16.73;;;12.60;;
7647;SDS011;3866;48.020;11.720;2023-02-15T02:42:47;13.80;;;10.70;;
7647;SDS011;3866;48.020;11.720;2023-02-15T02:45:21;14.00;;;10.87;;
7647;SDS011;3866;48.020;11.720;2023-02-15T02:47:52;15.17;;;11.50;;
7647;SDS011;3866;48.020;11.720;2023-02-15T02:50:26;19.43;;;11.97;;
7647;SDS011;3866;48.020;11.720;2023-02-15T02:52:56;15.87;;;11.60;;
7647;SDS011;3866;48.020;11.720;2023-02-15T02:55:26;15.17;;;10.60;;
7647;SDS011;3866;48.020;11.720;2023-02-15T02:57:57;18.03;;;11.60;;
7647;SDS011;3866;48.020;11.720;2023-02-15T03:00:29;16.30;;;11.60;;
7647;SDS011;3866;48.020;11.720;2023-02-15T03:03:00;15.87;;;11.23;;
7647;SDS011;3866;48.020;11.720;2023-02-15T03:05:31;19.70;;;12.17;;
7647;SDS011;3866;48.020;11.720;2023-02-15T03:08:02;18.27;;;12.47;;
7647;SDS011;3866;48.020;11.720;2023-02-15T03:10:35;20.43;;;11.40;;
7647;SDS011;3866;48.020;11.720;2023-02-15T03:13:03;16.33;;;10.87;;
7647;SDS011;3866;48.020;11.720;2023-02-15T03:15:31;14.30;;;10.57;;
7647;SDS011;3866;48.020;11.720;2023-02-15T03:18:14;17.90;;;10.77;;
7647;SDS011;3866;48.020;11.720;2023-02-15T03:20:45;17.90;;;10.83;;
7647;SDS011;3866;48.020;11.720;2023-02-15T03:23:15;18.67;;;11.33;;
7647;SDS011;3866;48.020;11.720;2023-02-15T03:25:48;18.70;;;12.13;;
7647;SDS011;3866;48.020;11.720;2023-02-15T03:28:19;15.70;;;11.50;;
7647;SDS011;3866;48.020;11.720;2023-02-15T03:30:49;15.40;;;10.97;;
7647;SDS011;3866;48.020;11.720;2023-02-15T03:33:21;14.37;;;10.40;;
7647;SDS011;3866;48.020;11.720;2023-02-15T03:35:52;17.73;;;10.17;;
7647;SDS011;3866;48.020;11.720;2023-02-15T03:38:25;16.67;;;10.70;;
7647;SDS011;3866;48.020;11.720;2023-02-15T03:40:55;20.43;;;11.10;;
7647;SDS011;3866;48.020;11.720;2023-02-15T03:43:40;17.87;;;11.47;;
7647;SDS011;3866;48.020;11.720;2023-02-15T03:46:15;19.10;;;11.77;;
7647;SDS011;3866;48.020;11.720;2023-02-15T03:48:50;14.70;;;10.90;;
7647;SDS011;3866;48.020;11.720;2023-02-15T03:51:21;13.30;;;10.10;;
7647;SDS011;3866;48.020;11.720;2023-02-15T03:54:00;14.87;;;10.70;;
7647;SDS011;3866;48.020;11.720;2023-02-15T03:56:30;37.03;;;12.40;;
7647;SDS011;3866;48.020;11.720;2023-02-15T03:58:59;54.50;;;13.13;;
7647;SDS011;3866;48.020;11.720;2023-02-15T04:01:45;18.00;;;11.40;;
7647;SDS011;3866;48.020;11.720;2023-02-15T04:04:24;26.07;;;12.27;;
7647;SDS011;3866;48.020;11.720;2023-02-15T04:06:55;53.83;;;13.53;;
7647;SDS011;3866;48.020;11.720;2023-02-15T04:09:22;35.27;;;13.00;;
7647;SDS011;3866;48.020;11.720;2023-02-15T04:12:07;45.50;;;13.27;;
7647;SDS011;3866;48.020;11.720;2023-02-15T04:14:34;37.77;;;13.27;;
7647;SDS011;3866;48.020;11.720;2023-02-15T04:17:19;19.63;;;12.40;;
7647;SDS011;3866;48.020;11.720;2023-02-15T04:19:45;30.73;;;13.07;;
7647;SDS011;3866;48.020;11.720;2023-02-15T04:22:31;57.97;;;15.80;;
7647;SDS011;3866;48.020;11.720;2023-02-15T04:25:16;23.53;;;13.07;;
7647;SDS011;3866;48.020;11.720;2023-02-15T04:27:43;45.87;;;14.53;;
7647;SDS011;3866;48.020;11.720;2023-02-15T04:30:12;56.70;;;14.47;;
7647;SDS011;3866;48.020;11.720;2023-02-15T04:32:40;101.57;;;17.27;;
7647;SDS011;3866;48.020;11.720;2023-02-15T04:35:07;77.47;;;14.80;;
7647;SDS011;3866;48.020;11.720;2023-02-15T04:37:36;26.10;;;13.30;;
7647;SDS011;3866;48.020;11.720;2023-02-15T04:40:04;43.50;;;14.33;;
7647;SDS011;3866;48.020;11.720;2023-02-15T04:42:32;40.23;;;13.57;;
7647;SDS011;3866;48.020;11.720;2023-02-15T04:44:59;103.57;;;16.30;;
7647;SDS011;3866;48.020;11.720;2023-02-15T04:47:27;161.00;;;81.17;;
7647;SDS011;3866;48.020;11.720;2023-02-15T04:49:54;39.40;;;14.37;;
7647;SDS011;3866;48.020;11.720;2023-02-15T04:52:21;20.00;;;12.27;;
7647;SDS011;3866;48.020;11.720;2023-02-15T04:54:49;47.27;;;13.87;;
7647;SDS011;3866;48.020;11.720;2023-02-15T04:57:16;40.13;;;12.77;;
7647;SDS011;3866;48.020;11.720;2023-02-15T04:59:43;31.67;;;12.50;;
7647;SDS011;3866;48.020;11.720;2023-02-15T05:02:10;24.27;;;11.80;;
7647;SDS011;3866;48.020;11.720;2023-02-15T05:04:37;41.80;;;12.27;;
7647;SDS011;3866;48.020;11.720;2023-02-15T05:07:04;18.33;;;11.93;;
7647;SDS011;3866;48.020;11.720;2023-02-15T05:09:30;14.37;;;10.57;;
7647;SDS011;3866;48.020;11.720;2023-02-15T05:11:59;52.20;;;13.80;;
7647;SDS011;3866;48.020;11.720;2023-02-15T05:14:26;30.80;;;11.67;;
7647;SDS011;3866;48.020;11.720;2023-02-15T05:16:52;15.97;;;9.83;;
7647;SDS011;3866;48.020;11.720;2023-02-15T05:19:19;28.97;;;11.40;;
7647;SDS011;3866;48.020;11.720;2023-02-15T05:21:48;17.23;;;11.30;;
7647;SDS011;3866;48.020;11.720;2023-02-15T05:24:15;52.53;;;20.47;;
7647;SDS011;3866;48.020;11.720;2023-02-15T05:27:00;18.13;;;12.37;;
7647;SDS011;3866;48.020;11.720;2023-02-15T05:29:44;17.03;;;11.03;;
7647;SDS011;3866;48.020;11.720;2023-02-15T05:32:12;12.67;;;10.07;;
7647;SDS011;3866;48.020;11.720;2023-02-15T05:34:39;18.73;;;10.37;;
7647;SDS011;3866;48.020;11.720;2023-02-15T05:37:06;39.40;;;11.37;;
7647;SDS011;3866;48.020;11.720;2023-02-15T05:39:33;13.70;;;10.43;;
7647;SDS011;3866;48.020;11.720;2023-02-15T05:42:02;19.70;;;10.47;;
7647;SDS011;3866;48.020;11.720;2023-02-15T05:44:29;25.27;;;11.03;;
7647;SDS011;3866;48.020;11.720;2023-02-15T05:46:55;29.53;;;11.20;;
7647;SDS011;3866;48.020;11.720;2023-02-15T05:49:22;20.93;;;11.27;;
7647;SDS011;3866;48.020;11.720;2023-02-15T05:51:49;17.43;;;10.73;;
7647;SDS011;3866;48.020;11.720;2023-02-15T05:54:16;19.13;;;10.80;;
7647;SDS011;3866;48.020;11.720;2023-02-15T05:56:43;20.80;;;10.00;;
7647;SDS011;3866;48.020;11.720;2023-02-15T05:59:11;15.50;;;9.97;;
7647;SDS011;3866;48.020;11.720;2023-02-15T06:01:38;25.90;;;10.20;;
7647;SDS011;3866;48.020;11.720;2023-02-15T06:04:05;56.27;;;12.90;;
7647;SDS011;3866;48.020;11.720;2023-02-15T06:06:32;42.77;;;11.67;;
7647;SDS011;3866;48.020;11.720;2023-02-15T06:08:59;38.50;;;11.57;;
7647;SDS011;3866;48.020;11.720;2023-02-15T06:11:26;15.93;;;11.10;;
7647;SDS011;3866;48.020;11.720;2023-02-15T06:13:53;17.33;;;10.17;;
7647;SDS011;3866;48.020;11.720;2023-02-15T06:16:21;20.40;;;9.93;;
7647;SDS011;3866;48.020;11.720;2023-02-15T06:18:48;14.53;;;10.10;;
7647;SDS011;3866;48.020;11.720;2023-02-15T06:21:15;20.60;;;10.00;;
7647;SDS011;3866;48.020;11.720;2023-02-15T06:23:42;17.63;;;10.87;;
7647;SDS011;3866;48.020;11.720;2023-02-15T06:26:09;20.80;;;10.03;;
7647;SDS011;3866;48.020;11.720;2023-02-15T06:28:36;25.93;;;11.47;;
7647;SDS011;3866;48.020;11.720;2023-02-15T06:31:05;20.23;;;11.03;;
7647;SDS011;3866;48.020;11.720;2023-02-15T06:33:34;13.77;;;10.23;;
7647;SDS011;3866;48.020;11.720;2023-02-15T06:36:01;14.60;;;10.60;;
7647;SDS011;3866;48.020;11.720;2023-02-15T06:38:28;17.10;;;11.67;;
7647;SDS011;3866;48.020;11.720;2023-02-15T06:40:55;16.10;;;11.53;;
7647;SDS011;3866;48.020;11.720;2023-02-15T06:43:22;12.50;;;9.57;;
7647;SDS011;3866;48.020;11.720;2023-02-15T06:45:49;14.53;;;10.10;;
7647;SDS011;3866;48.020;11.720;2023-02-15T06:48:16;13.33;;;9.97;;
7647;SDS011;3866;48.020;11.720;2023-02-15T06:50:44;14.07;;;9.50;;
7647;SDS011;3866;48.020;11.720;2023-02-15T06:53:11;12.53;;;10.40;;
7647;SDS011;3866;48.020;11.720;2023-02-15T06:55:38;11.47;;;8.80;;
7647;SDS011;3866;48.020;11.720;2023-02-15T06:58:05;12.63;;;9.30;;
7647;SDS011;3866;48.020;11.720;2023-02-15T07:00:32;9.87;;;8.83;;
7647;SDS011;3866;48.020;11.720;2023-02-15T07:02:59;9.47;;;7.70;;
7647;SDS011;3866;48.020;11.720;2023-02-15T07:05:27;11.20;;;8.67;;
7647;SDS011;3866;48.020;11.720;2023-02-15T07:07:57;9.47;;;7.87;;
7647;SDS011;3866;48.020;11.720;2023-02-15T07:10:24;8.83;;;7.70;;
7647;SDS011;3866;48.020;11.720;2023-02-15T07:12:51;7.60;;;6.80;;
7647;SDS011;3866;48.020;11.720;2023-02-15T07:15:18;8.27;;;6.90;;
7647;SDS011;3866;48.020;11.720;2023-02-15T07:17:46;8.77;;;6.47;;
7647;SDS011;3866;48.020;11.720;2023-02-15T07:20:15;7.17;;;6.37;;
7647;SDS011;3866;48.020;11.720;2023-02-15T07:22:43;7.73;;;6.30;;
7647;SDS011;3866;48.020;11.720;2023-02-15T07:25:11;7.00;;;6.00;;
7647;SDS011;3866;48.020;11.720;2023-02-15T07:27:39;6.43;;;5.27;;
7647;SDS011;3866;48.020;11.720;2023-02-15T07:30:06;6.07;;;5.23;;
7647;SDS011;3866;48.020;11.720;2023-02-15T07:32:36;6.57;;;5.90;;
7647;SDS011;3866;48.020;11.720;2023-02-15T07:35:23;5.87;;;5.27;;
7647;SDS011;3866;48.020;11.720;2023-02-15T07:37:51;5.50;;;4.60;;
7647;SDS011;3866;48.020;11.720;2023-02-15T07:40:19;5.67;;;5.17;;
7647;SDS011;3866;48.020;11.720;2023-02-15T07:42:48;5.13;;;4.63;;
7647;SDS011;3866;48.020;11.720;2023-02-15T07:45:17;4.87;;;4.47;;
7647;SDS011;3866;48.020;11.720;2023-02-15T07:47:47;5.73;;;5.23;;
7647;SDS011;3866;48.020;11.720;2023-02-15T07:50:14;5.33;;;4.83;;
7647;SDS011;3866;48.020;11.720;2023-02-15T07:52:41;5.83;;;5.10;;
7647;SDS011;3866;48.020;11.720;2023-02-15T07:55:08;5.13;;;4.67;;
7647;SDS011;3866;48.020;11.720;2023-02-15T07:57:41;4.97;;;4.57;;
7647;SDS011;3866;48.020;11.720;2023-02-15T08:00:10;6.37;;;5.37;;
7647;SDS011;3866;48.020;11.720;2023-02-15T08:02:38;5.27;;;4.87;;
7647;SDS011;3866;48.020;11.720;2023-02-15T08:05:05;5.10;;;4.70;;
7647;SDS011;3866;48.020;11.720;2023-02-15T08:07:32;5.23;;;4.83;;
7647;SDS011;3866;48.020;11.720;2023-02-15T08:09:59;5.50;;;5.00;;
7647;SDS011;3866;48.020;11.720;2023-02-15T08:12:26;4.87;;;4.47;;
7647;SDS011;3866;48.020;11.720;2023-02-15T08:14:55;5.50;;;4.80;;
7647;SDS011;3866;48.020;11.720;2023-02-15T08:17:21;5.40;;;4.90;;
7647;SDS011;3866;48.020;11.720;2023-02-15T08:19:48;5.07;;;4.67;;
7647;SDS011;3866;48.020;11.720;2023-02-15T08:22:15;5.00;;;4.60;;
7647;SDS011;3866;48.020;11.720;2023-02-15T08:24:42;5.47;;;4.97;;
7647;SDS011;3866;48.020;11.720;2023-02-15T08:27:10;4.70;;;4.30;;
7647;SDS011;3866;48.020;11.720;2023-02-15T08:29:37;5.00;;;4.30;;
7647;SDS011;3866;48.020;11.720;2023-02-15T08:32:08;5.20;;;4.80;;
7647;SDS011;3866;48.020;11.720;2023-02-15T08:34:38;5.07;;;4.57;;
7647;SDS011;3866;48.020;11.720;2023-02-15T08:37:07;5.00;;;4.60;;
7647;SDS011;3866;48.020;11.720;2023-02-15T08:39:34;4.60;;;4.20;;
7647;SDS011;3866;48.020;11.720;2023-02-15T08:42:01;5.27;;;4.87;;
7647;SDS011;3866;48.020;11.720;2023-02-15T08:44:29;4.77;;;4.37;;
7647;SDS011;3866;48.020;11.720;2023-02-15T08:46:55;5.63;;;5.13;;
7647;SDS011;3866;48.020;11.720;2023-02-15T08:49:29;5.20;;;4.70;;
7647;SDS011;3866;48.020;11.720;2023-02-15T08:51:56;5.23;;;4.83;;
7647;SDS011;3866;48.020;11.720;2023-02-15T08:54:24;4.70;;;4.30;;
7647;SDS011;3866;48.020;11.720;2023-02-15T08:56:51;4.93;;;4.43;;
7647;SDS011;3866;48.020;11.720;2023-02-15T08:59:19;4.97;;;4.57;;
7647;SDS011;3866;48.020;11.720;2023-02-15T09:01:51;5.27;;;4.77;;
7647;SDS011;3866;48.020;11.720;2023-02-15T09:04:20;5.83;;;5.33;;
7647;SDS011;3866;48.020;11.720;2023-02-15T09:06:49;4.50;;;4.10;;
7647;SDS011;3866;48.020;11.720;2023-02-15T09:09:17;5.00;;;4.40;;
7647;SDS011;3866;48.020;11.720;2023-02-15T09:11:45;5.60;;;5.10;;
7647;SDS011;3866;48.020;11.720;2023-02-15T09:14:14;5.03;;;4.60;;
7647;SDS011;3866;48.020;11.720;2023-02-15T09:16:43;5.77;;;5.27;;
7647;SDS011;3866;48.020;11.720;2023-02-15T09:19:13;5.97;;;5.47;;
7647;SDS011;3866;48.020;11.720;2023-02-15T09:21:40;5.20;;;4.70;;
7647;SDS011;3866;48.020;11.720;2023-02-15T09:24:10;5.03;;;4.53;;
7647;SDS011;3866;48.020;11.720;2023-02-15T09:26:39;6.67;;;5.30;;
7647;SDS011;3866;48.020;11.720;2023-02-15T09:29:08;6.03;;;5.03;;
7647;SDS011;3866;48.020;11.720;2023-02-15T09:31:37;5.17;;;4.67;;
7647;SDS011;3866;48.020;11.720;2023-02-15T09:34:06;5.70;;;5.20;;
7647;SDS011;3866;48.020;11.720;2023-02-15T09:36:34;5.93;;;5.33;;
7647;SDS011;3866;48.020;11.720;2023-02-15T09:39:04;5.67;;;5.17;;
7647;SDS011;3866;48.020;11.720;2023-02-15T09:41:39;6.53;;;5.90;;
7647;SDS011;3866;48.020;11.720;2023-02-15T09:44:26;6.40;;;5.70;;
7647;SDS011;3866;48.020;11.720;2023-02-15T09:47:14;6.83;;;5.57;;
7647;SDS011;3866;48.020;11.720;2023-02-15T09:49:50;5.30;;;4.80;;
7647;SDS011;3866;48.020;11.720;2023-02-15T09:52:27;5.23;;;4.73;;
7647;SDS011;3866;48.020;11.720;2023-02-15T09:55:05;5.53;;;5.03;;
7647;SDS011;3866;48.020;11.720;2023-02-15T09:57:45;5.43;;;4.93;;
7647;SDS011;3866;48.020;11.720;2023-02-15T10:00:20;7.90;;;5.77;;
7647;SDS011;3866;48.020;11.720;2023-02-15T10:02:59;6.27;;;5.40;;
7647;SDS011;3866;48.020;11.720;2023-02-15T10:05:37;5.47;;;4.97;;
7647;SDS011;3866;48.020;11.720;2023-02-15T10:11:43;6.13;;;5.53;;
7647;SDS011;3866;48.020;11.720;2023-02-15T10:14:37;7.17;;;5.20;;
7647;SDS011;3866;48.020;11.720;2023-02-15T10:17:23;10.73;;;9.63;;
7647;SDS011;3866;48.020;11.720;2023-02-15T10:20:05;8.00;;;6.53;;
7647;SDS011;3866;48.020;11.720;2023-02-15T10:22:47;7.10;;;6.40;;
7647;SDS011;3866;48.020;11.720;2023-02-15T10:25:31;7.23;;;4.97;;
7647;SDS011;3866;48.020;11.720;2023-02-15T10:28:11;5.30;;;4.80;;
7647;SDS011;3866;48.020;11.720;2023-02-15T10:30:45;5.37;;;4.63;;
7647;SDS011;3866;48.020;11.720;2023-02-15T10:33:18;6.13;;;4.80;;
7647;SDS011;3866;48.020;11.720;2023-02-15T10:35:58;5.87;;;5.07;;
7647;SDS011;3866;48.020;11.720;2023-02-15T10:38:33;4.77;;;4.27;;
7647;SDS011;3866;48.020;11.720;2023-02-15T10:41:09;6.03;;;4.10;;
7647;SDS011;3866;48.020;11.720;2023-02-15T10:43:55;4.37;;;3.97;;
7647;SDS011;3866;48.020;11.720;2023-02-15T10:46:38;5.37;;;3.73;;
7647;SDS011;3866;48.020;11.720;2023-02-15T10:49:21;4.33;;;3.67;;
7647;SDS011;3866;48.020;11.720;2023-02-15T10:52:01;3.97;;;3.33;;
7647;SDS011;3866;48.020;11.720;2023-02-15T10:54:41;4.47;;;3.90;;
7647;SDS011;3866;48.020;11.720;2023-02-15T10:57:17;5.90;;;4.13;;
7647;SDS011;3866;48.020;11.720;2023-02-15T10:59:55;5.60;;;4.20;;
7647;SDS011;3866;48.020;11.720;2023-02-15T11:02:35;6.97;;;4.93;;
7647;SDS011;3866;48.020;11.720;2023-02-15T11:05:16;6.93;;;4.80;;
7647;SDS011;3866;48.020;11.720;2023-02-15T11:07:56;5.40;;;4.73;;
7647;SDS011;3866;48.020;11.720;2023-02-15T11:10:27;6.43;;;4.40;;
7647;SDS011;3866;48.020;11.720;2023-02-15T11:13:00;5.07;;;4.57;;
7647;SDS011;3866;48.020;11.720;2023-02-15T11:15:33;4.43;;;4.03;;
7647;SDS011;3866;48.020;11.720;2023-02-15T11:18:05;5.87;;;4.70;;
7647;SDS011;3866;48.020;11.720;2023-02-15T11:20:38;6.93;;;4.17;;
7647;SDS011;3866;48.020;11.720;2023-02-15T11:23:12;5.13;;;4.63;;
7647;SDS011;3866;48.020;11.720;2023-02-15T11:25:42;6.20;;;4.97;;
7647;SDS011;3866;48.020;11.720;2023-02-15T11:28:14;5.50;;;4.83;;
7647;SDS011;3866;48.020;11.720;2023-02-15T11:30:49;5.60;;;5.00;;
7647;SDS011;3866;48.020;11.720;2023-02-15T11:33:20;10.70;;;5.60;;
7647;SDS011;3866;48.020;11.720;2023-02-15T11:35:52;5.50;;;4.47;;
7647;SDS011;3866;48.020;11.720;2023-02-15T11:38:26;7.80;;;5.53;;
7647;SDS011;3866;48.020;11.720;2023-02-15T11:40:56;6.63;;;5.67;;
7647;SDS011;3866;48.020;11.720;2023-02-15T11:43:27;6.63;;;5.37;;
7647;SDS011;3866;48.020;11.720;2023-02-15T11:45:58;7.30;;;5.00;;
7647;SDS011;3866;48.020;11.720;2023-02-15T11:48:25;6.53;;;5.50;;
7647;SDS011;3866;48.020;11.720;2023-02-15T11:50:55;6.00;;;5.40;;
7647;SDS011;3866;48.020;11.720;2023-02-15T11:53:23;12.43;;;6.40;;
7647;SDS011;3866;48.020;11.720;2023-02-15T11:55:52;9.73;;;5.43;;
7647;SDS011;3866;48.020;11.720;2023-02-15T11:58:25;8.17;;;6.00;;
7647;SDS011;3866;48.020;11.720;2023-02-15T12:01:00;8.20;;;5.83;;
7647;SDS011;3866;48.020;11.720;2023-02-15T12:03:35;8.17;;;6.20;;
7647;SDS011;3866;48.020;11.720;2023-02-15T12:06:15;6.30;;;5.10;;
7647;SDS011;3866;48.020;11.720;2023-02-15T12:08:48;10.57;;;6.70;;
7647;SDS011;3866;48.020;11.720;2023-02-15T12:11:22;9.63;;;6.27;;
7647;SDS011;3866;48.020;11.720;2023-02-15T12:13:55;9.43;;;6.97;;
7647;SDS011;3866;48.020;11.720;2023-02-15T12:16:25;10.83;;;6.47;;
7647;SDS011;3866;48.020;11.720;2023-02-15T12:18:55;9.17;;;6.23;;
7647;SDS011;3866;48.020;11.720;2023-02-15T12:21:25;11.83;;;6.50;;
7647;SDS011;3866;48.020;11.720;2023-02-15T12:23:55;7.87;;;6.37;;
7647;SDS011;3866;48.020;11.720;2023-02-15T12:26:26;9.73;;;5.93;;
7647;SDS011;3866;48.020;11.720;2023-02-15T12:28:55;8.10;;;6.17;;
7647;SDS011;3866;48.020;11.720;2023-02-15T12:31:30;10.20;;;6.00;;
7647;SDS011;3866;48.020;11.720;2023-02-15T12:34:02;9.77;;;5.90;;
7647;SDS011;3866;48.020;11.720;2023-02-15T12:36:40;9.67;;;6.17;;
7647;SDS011;3866;48.020;11.720;2023-02-15T12:39:18;8.33;;;6.47;;
7647;SDS011;3866;48.020;11.720;2023-02-15T12:41:57;10.30;;;5.80;;
7647;SDS011;3866;48.020;11.720;2023-02-15T12:44:29;9.53;;;6.13;;
7647;SDS011;3866;48.020;11.720;2023-02-15T12:47:00;8.47;;;5.97;;
7647;SDS011;3866;48.020;11.720;2023-02-15T12:49:29;8.30;;;6.40;;
7647;SDS011;3866;48.020;11.720;2023-02-15T12:51:58;7.57;;;5.87;;
7647;SDS011;3866;48.020;11.720;2023-02-15T12:54:34;7.50;;;5.93;;
7647;SDS011;3866;48.020;11.720;2023-02-15T12:57:14;8.03;;;5.97;;
7647;SDS011;3866;48.020;11.720;2023-02-15T12:59:50;9.73;;;6.30;;
7647;SDS011;3866;48.020;11.720;2023-02-15T13:02:22;6.97;;;6.17;;
7647;SDS011;3866;48.020;11.720;2023-02-15T13:04:52;9.03;;;5.70;;
7647;SDS011;3866;48.020;11.720;2023-02-15T13:07:20;6.77;;;5.53;;
7647;SDS011;3866;48.020;11.720;2023-02-15T13:09:47;8.07;;;5.53;;
7647;SDS011;3866;48.020;11.720;2023-02-15T13:12:17;8.53;;;5.57;;
7647;SDS011;3866;48.020;11.720;2023-02-15T13:14:47;8.33;;;5.80;;
7647;SDS011;3866;48.020;11.720;2023-02-15T13:17:17;8.80;;;6.07;;
7647;SDS011;3866;48.020;11.720;2023-02-15T13:19:49;7.33;;;5.27;;
7647;SDS011;3866;48.020;11.720;2023-02-15T13:22:20;9.97;;;5.13;;
7647;SDS011;3866;48.020;11.720;2023-02-15T13:24:51;7.53;;;5.97;;
7647;SDS011;3866;48.020;11.720;2023-02-15T13:27:22;8.80;;;5.90;;
7647;SDS011;3866;48.020;11.720;2023-02-15T13:29:56;6.20;;;5.53;;
7647;SDS011;3866;48.020;11.720;2023-02-15T13:32:28;9.10;;;6.07;;
7647;SDS011;3866;48.020;11.720;2023-02-15T13:35:01;9.60;;;5.73;;
7647;SDS011;3866;48.020;11.720;2023-02-15T13:40:27;7.63;;;5.50;;
7647;SDS011;3866;48.020;11.720;2023-02-15T13:43:01;6.50;;;5.37;;
7647;SDS011;3866;48.020;11.720;2023-02-15T13:45:39;7.10;;;5.70;;
7647;SDS011;3866;48.020;11.720;2023-02-15T13:48:20;10.70;;;5.90;;
7647;SDS011;3866;48.020;11.720;2023-02-15T13:51:02;5.47;;;4.97;;
7647;SDS011;3866;48.020;11.720;2023-02-15T13:56:35;5.67;;;5.13;;
7647;SDS011;3866;48.020;11.720;2023-02-15T13:59:19;5.87;;;5.10;;
7647;SDS011;3866;48.020;11.720;2023-02-15T14:02:25;7.73;;;5.93;;
7647;SDS011;3866;48.020;11.720;2023-02-15T14:05:30;6.73;;;5.70;;
7647;SDS011;3866;48.020;11.720;2023-02-15T14:08:17;8.00;;;5.97;;
7647;SDS011;3866;48.020;11.720;2023-02-15T14:10:55;6.77;;;5.57;;
7647;SDS011;3866;48.020;11.720;2023-02-15T14:16:41;9.53;;;6.60;;
7647;SDS011;3866;48.020;11.720;2023-02-15T14:19:16;9.47;;;6.90;;
7647;SDS011;3866;48.020;11.720;2023-02-15T14:21:57;8.17;;;6.67;;
7647;SDS011;3866;48.020;11.720;2023-02-15T14:24:29;7.73;;;6.90;;
7647;SDS011;3866;48.020;11.720;2023-02-15T14:27:07;10.43;;;6.47;;
7647;SDS011;3866;48.020;11.720;2023-02-15T14:29:44;7.90;;;6.07;;
7647;SDS011;3866;48.020;11.720;2023-02-15T14:32:16;7.07;;;6.13;;
7647;SDS011;3866;48.020;11.720;2023-02-15T14:34:48;7.73;;;6.23;;
7647;SDS011;3866;48.020;11.720;2023-02-15T14:37:21;9.90;;;5.83;;
7647;SDS011;3866;48.020;11.720;2023-02-15T14:39:55;6.77;;;6.03;;
7647;SDS011;3866;48.020;11.720;2023-02-15T14:42:45;7.37;;;6.10;;
7647;SDS011;3866;48.020;11.720;2023-02-15T14:45:19;8.03;;;6.17;;
7647;SDS011;3866;48.020;11.720;2023-02-15T14:47:51;6.70;;;6.00;;
7647;SDS011;3866;48.020;11.720;2023-02-15T14:50:40;7.80;;;5.40;;
7647;SDS011;3866;48.020;11.720;2023-02-15T14:53:17;8.40;;;5.97;;
7647;SDS011;3866;48.020;11.720;2023-02-15T14:56:15;6.83;;;5.83;;
7647;SDS011;3866;48.020;11.720;2023-02-15T14:58:57;9.83;;;6.27;;
7647;SDS011;3866;48.020;11.720;2023-02-15T15:01:27;8.37;;;6.23;;
7647;SDS011;3866;48.020;11.720;2023-02-15T15:03:58;6.63;;;5.93;;
7647;SDS011;3866;48.020;11.720;2023-02-15T15:06:29;6.73;;;6.13;;
7647;SDS011;3866;48.020;11.720;2023-02-15T15:09:00;7.00;;;6.03;;
7647;SDS011;3866;48.020;11.720;2023-02-15T15:11:37;7.43;;;6.63;;
7647;SDS011;3866;48.020;11.720;2023-02-15T15:14:07;8.83;;;6.90;;
7647;SDS011;3866;48.020;11.720;2023-02-15T15:16:46;8.90;;;7.13;;
7647;SDS011;3866;48.020;11.720;2023-02-15T15:22:32;7.97;;;7.17;;
7647;SDS011;3866;48.020;11.720;2023-02-15T15:25:02;8.30;;;7.50;;
7647;SDS011;3866;48.020;11.720;2023-02-15T15:46:03;8.63;;;7.83;;
7647;SDS011;3866;48.020;11.720;2023-02-15T15:48:38;12.03;;;8.87;;
7647;SDS011;3866;48.020;11.720;2023-02-15T15:51:10;12.97;;;11.30;;
7647;SDS011;3866;48.020;11.720;2023-02-15T15:53:41;14.53;;;11.53;;